Aviation Digital Data Service (ADDS)

Output produced by TAFs form (1740 UTC 21 April 2018)
found at http://aviationweather.gov/adds/tafs/
 
RJOB 211200Z VRB01KT CAVOK 16/12 Q1020
TAF RJOB 211709Z 2118/2300 06004KT 9999 FEW030 
     BECMG 2123/2201 20005KT 
     BECMG 2206/2209 04004KT